createdAt,value
2022-11-19T00:01:28.117Z,33.73
2022-11-19T00:03:55.975Z,29.73
2022-11-19T00:06:28.039Z,29.87
2022-11-19T00:08:55.854Z,25.53
2022-11-19T00:11:45.156Z,27.97
2022-11-19T00:14:14.887Z,25.03
2022-11-19T00:16:44.153Z,27.45
2022-11-19T00:19:12.759Z,24.77
2022-11-19T00:21:40.314Z,28.13
2022-11-19T00:24:08.997Z,24.33
2022-11-19T00:26:36.803Z,25.63
2022-11-19T00:29:04.216Z,24.30
2022-11-19T00:31:32.292Z,26.17
2022-11-19T00:33:59.635Z,21.07
2022-11-19T00:36:26.983Z,26.37
2022-11-19T00:38:55.160Z,20.43
2022-11-19T00:41:22.818Z,20.90
2022-11-19T00:43:50.464Z,25.83
2022-11-19T00:46:23.747Z,29.27
2022-11-19T00:48:54.064Z,21.07
2022-11-19T00:51:23.676Z,22.08
2022-11-19T00:53:51.832Z,22.60
2022-11-19T00:56:22.036Z,21.20
2022-11-19T00:58:49.610Z,24.23
2022-11-19T01:01:19.510Z,22.73
2022-11-19T01:03:47.113Z,28.77
2022-11-19T01:06:19.553Z,25.73
2022-11-19T01:08:51.609Z,24.90
2022-11-19T01:11:29.211Z,27.67
2022-11-19T01:13:57.543Z,26.70
2022-11-19T01:16:40.488Z,28.40
2022-11-19T01:19:10.912Z,26.33
2022-11-19T01:21:38.248Z,24.02
2022-11-19T01:24:06.253Z,23.43
2022-11-19T01:26:33.685Z,28.27
2022-11-19T01:29:01.030Z,26.37
2022-11-19T01:31:30.373Z,23.80
2022-11-19T01:33:58.832Z,28.13
2022-11-19T01:36:29.402Z,26.10
2022-11-19T01:38:57.789Z,25.65
2022-11-19T01:41:30.192Z,32.20
2022-11-19T01:44:06.261Z,25.93
2022-11-19T01:46:37.440Z,36.10
2022-11-19T01:49:12.677Z,25.07
2022-11-19T01:51:54.330Z,30.47
2022-11-19T01:54:44.277Z,27.83
2022-11-19T01:57:16.958Z,29.43
2022-11-19T01:59:48.675Z,24.30
2022-11-19T02:02:18.132Z,31.30
2022-11-19T02:04:45.778Z,25.40
2022-11-19T02:07:14.272Z,27.67
2022-11-19T02:09:42.602Z,28.50
2022-11-19T02:12:34.542Z,27.60
2022-11-19T02:15:12.387Z,28.33
2022-11-19T02:18:13.358Z,28.23
2022-11-19T02:24:00.048Z,26.77
2022-11-19T02:27:13.633Z,24.97
2022-11-19T02:30:10.932Z,25.53
2022-11-19T02:32:59.256Z,28.33
2022-11-19T02:35:54.850Z,22.40
2022-11-19T02:39:05.547Z,30.37
2022-11-19T02:42:00.197Z,23.98
2022-11-19T02:45:11.415Z,33.30
2022-11-19T02:47:50.679Z,27.80
2022-11-19T02:50:54.258Z,28.43
2022-11-19T02:53:23.564Z,30.90
2022-11-19T02:56:09.653Z,25.43
2022-11-19T02:59:06.295Z,25.00
2022-11-19T03:01:54.743Z,31.03
2022-11-19T03:04:30.318Z,26.07
2022-11-19T03:07:15.337Z,31.27
2022-11-19T03:09:55.981Z,30.97
2022-11-19T03:12:35.026Z,30.65
2022-11-19T03:15:53.286Z,33.17
2022-11-19T03:18:37.610Z,36.10
2022-11-19T03:21:35.437Z,26.50
2022-11-19T03:24:19.791Z,32.27
2022-11-19T03:27:08.557Z,29.30
2022-11-19T03:29:41.781Z,31.10
2022-11-19T03:32:16.470Z,30.23
2022-11-19T03:34:47.755Z,37.90
2022-11-19T03:37:18.732Z,29.87
2022-11-19T03:39:47.918Z,32.57
2022-11-19T03:42:17.240Z,30.27
2022-11-19T03:44:52.401Z,33.63
2022-11-19T03:47:26.410Z,29.23
2022-11-19T03:50:05.386Z,31.20
2022-11-19T03:52:33.466Z,27.20
2022-11-19T03:55:00.606Z,28.70
2022-11-19T03:57:28.099Z,28.63
2022-11-19T03:59:55.411Z,25.13
2022-11-19T04:02:22.781Z,34.37
2022-11-19T04:04:50.010Z,32.10
2022-11-19T04:07:22.049Z,33.50
2022-11-19T04:09:50.137Z,28.57
2022-11-19T04:12:22.139Z,29.70
2022-11-19T04:14:50.382Z,24.73
2022-11-19T04:17:19.311Z,40.43
2022-11-19T04:19:47.573Z,38.63
2022-11-19T04:22:14.745Z,31.53
2022-11-19T04:24:41.891Z,32.03
2022-11-19T04:27:09.267Z,32.43
2022-11-19T04:29:36.600Z,31.87
2022-11-19T04:32:04.194Z,31.13
2022-11-19T04:34:31.456Z,32.07
2022-11-19T04:36:58.597Z,26.90
2022-11-19T04:39:26.839Z,32.50
2022-11-19T04:41:54.092Z,31.57
2022-11-19T04:44:21.280Z,38.47
2022-11-19T04:46:48.496Z,31.03
2022-11-19T04:49:15.670Z,33.83
2022-11-19T04:51:42.810Z,34.70
2022-11-19T04:54:10.274Z,32.33
2022-11-19T04:56:38.049Z,27.03
2022-11-19T04:59:05.786Z,29.80
2022-11-19T05:01:33.310Z,25.50
2022-11-19T05:04:00.599Z,27.90
2022-11-19T05:06:27.822Z,28.57
2022-11-19T05:08:55.120Z,31.27
2022-11-19T05:11:22.286Z,28.30
2022-11-19T05:13:49.481Z,28.77
2022-11-19T05:16:16.719Z,30.13
2022-11-19T05:18:44.079Z,30.07
2022-11-19T05:21:11.222Z,24.07
2022-11-19T05:23:38.396Z,30.00
2022-11-19T05:26:05.864Z,23.97
2022-11-19T05:28:39.068Z,27.70
2022-11-19T05:31:08.070Z,27.97
2022-11-19T05:33:35.444Z,23.90
2022-11-19T05:36:03.617Z,26.37
2022-11-19T05:38:30.806Z,26.73
2022-11-19T05:40:58.068Z,24.00
2022-11-19T05:43:25.229Z,32.20
2022-11-19T05:45:52.432Z,29.90
2022-11-19T05:48:19.678Z,27.20
2022-11-19T05:50:46.866Z,23.50
2022-11-19T05:53:14.199Z,28.37
2022-11-19T05:55:41.359Z,23.30
2022-11-19T05:58:08.617Z,27.43
2022-11-19T06:00:35.819Z,26.73
2022-11-19T06:03:03.288Z,26.80
2022-11-19T06:05:30.526Z,25.00
2022-11-19T06:07:58.016Z,27.57
2022-11-19T06:10:25.211Z,28.70
2022-11-19T06:12:52.352Z,27.80
2022-11-19T06:15:20.185Z,23.80
2022-11-19T06:17:47.965Z,20.47
2022-11-19T06:20:15.277Z,21.67
2022-11-19T06:22:42.491Z,21.57
2022-11-19T06:25:10.062Z,21.07
2022-11-19T06:27:37.370Z,24.33
2022-11-19T06:30:05.970Z,24.70
2022-11-19T06:32:33.261Z,24.17
2022-11-19T06:35:00.501Z,23.50
2022-11-19T06:37:27.786Z,24.33
2022-11-19T06:39:55.572Z,30.93
2022-11-19T06:42:38.505Z,25.37
2022-11-19T06:45:14.904Z,24.10
2022-11-19T06:47:43.029Z,24.63
2022-11-19T06:50:11.318Z,28.20
2022-11-19T06:52:38.712Z,27.93
2022-11-19T06:55:06.464Z,30.53
2022-11-19T06:57:33.976Z,28.00
2022-11-19T07:00:01.263Z,26.77
2022-11-19T07:02:28.541Z,28.13
2022-11-19T07:04:55.734Z,20.43
2022-11-19T07:07:23.123Z,27.00
2022-11-19T07:09:50.407Z,28.60
2022-11-19T07:12:17.585Z,27.27
2022-11-19T07:14:44.829Z,28.53
2022-11-19T07:17:12.268Z,25.43
2022-11-19T07:19:40.396Z,28.23
2022-11-19T07:22:07.651Z,27.93
2022-11-19T07:24:35.071Z,22.27
2022-11-19T07:27:02.341Z,26.07
2022-11-19T07:29:29.772Z,23.27
2022-11-19T07:31:56.962Z,22.97
2022-11-19T07:34:24.205Z,28.13
2022-11-19T07:36:51.469Z,23.53
2022-11-19T07:39:18.901Z,21.10
2022-11-19T07:42:05.108Z,17.63
2022-11-19T07:44:33.788Z,23.47
2022-11-19T07:47:00.970Z,24.13
2022-11-19T07:49:28.288Z,19.60
2022-11-19T07:51:55.605Z,27.70
2022-11-19T07:54:22.909Z,29.63
2022-11-19T07:56:50.258Z,26.27
2022-11-19T07:59:18.506Z,21.67
2022-11-19T08:01:46.077Z,20.50
2022-11-19T08:04:13.459Z,20.93
2022-11-19T08:06:40.771Z,18.70
2022-11-19T08:09:07.967Z,24.90
2022-11-19T08:11:35.323Z,19.70
2022-11-19T08:14:02.722Z,21.98
2022-11-19T08:16:50.812Z,19.88
2022-11-19T08:19:18.836Z,20.23
2022-11-19T08:21:47.859Z,20.77
2022-11-19T08:24:19.072Z,23.00
2022-11-19T08:26:47.806Z,20.25
2022-11-19T08:29:17.577Z,17.13
2022-11-19T08:31:47.596Z,20.27
2022-11-19T08:34:16.209Z,17.45
2022-11-19T08:36:44.328Z,20.00
2022-11-19T08:39:11.894Z,19.23
2022-11-19T08:41:57.768Z,19.63
2022-11-19T08:44:25.081Z,18.17
2022-11-19T08:46:52.485Z,19.37
2022-11-19T08:49:19.932Z,17.83
2022-11-19T08:51:47.165Z,11.70
2022-11-19T08:54:14.483Z,6.57
2022-11-19T08:56:42.078Z,8.63
2022-11-19T08:59:09.485Z,7.57
2022-11-19T09:01:36.748Z,5.50
2022-11-19T09:04:04.088Z,16.33
2022-11-19T09:06:34.170Z,16.23
2022-11-19T09:09:03.469Z,16.42
2022-11-19T09:11:30.929Z,15.00
2022-11-19T09:13:58.353Z,16.77
2022-11-19T09:16:25.712Z,17.63
2022-11-19T09:18:53.014Z,17.83
2022-11-19T09:21:20.286Z,17.37
2022-11-19T09:23:47.622Z,18.67
2022-11-19T09:26:18.875Z,14.60
2022-11-19T09:28:46.795Z,13.60
2022-11-19T09:31:18.020Z,11.90
2022-11-19T09:33:52.124Z,12.53
2022-11-19T09:36:20.811Z,11.17
2022-11-19T09:38:48.727Z,10.67
2022-11-19T09:41:46.702Z,9.93
2022-11-19T09:44:51.275Z,11.33
2022-11-19T09:47:42.617Z,9.63
2022-11-19T09:50:21.829Z,11.97
2022-11-19T09:53:11.725Z,9.53
2022-11-19T09:55:46.082Z,9.27
2022-11-19T09:58:32.936Z,10.90
2022-11-19T10:01:00.734Z,10.47
2022-11-19T10:03:33.092Z,8.30
2022-11-19T10:06:21.905Z,14.53
2022-11-19T10:09:32.856Z,11.77
2022-11-19T10:12:14.935Z,10.50
2022-11-19T10:14:59.164Z,13.10
2022-11-19T10:17:47.819Z,11.93
2022-11-19T10:20:36.047Z,14.13
2022-11-19T10:23:17.268Z,13.67
2022-11-19T10:25:50.585Z,14.20
2022-11-19T10:28:27.759Z,13.10
2022-11-19T10:31:06.088Z,11.77
2022-11-19T10:33:41.078Z,11.77
2022-11-19T10:36:36.750Z,12.50
2022-11-19T10:39:37.021Z,15.73
2022-11-19T10:42:28.882Z,10.60
2022-11-19T10:45:21.642Z,11.87
2022-11-19T10:48:23.773Z,11.67
2022-11-19T10:50:52.420Z,12.87
2022-11-19T10:53:30.380Z,10.77
2022-11-19T10:56:21.594Z,10.67
2022-11-19T10:58:49.786Z,13.53
2022-11-19T11:01:37.017Z,14.53
2022-11-19T11:04:11.633Z,9.73
2022-11-19T11:07:01.167Z,8.98
2022-11-19T11:09:42.642Z,15.35
2022-11-19T11:12:46.116Z,12.00
2022-11-19T11:15:21.629Z,11.18
2022-11-19T11:18:02.233Z,10.65
2022-11-19T11:20:31.144Z,11.75
2022-11-19T11:23:19.189Z,11.25
2022-11-19T11:26:10.758Z,9.52
2022-11-19T11:29:17.559Z,11.55
2022-11-19T11:31:48.550Z,9.80
2022-11-19T11:36:56.883Z,9.15
2022-11-19T11:39:40.080Z,10.10
2022-11-19T11:42:17.533Z,11.85
2022-11-19T11:44:56.391Z,9.70
2022-11-19T11:47:39.690Z,11.25
2022-11-19T11:50:27.347Z,10.10
2022-11-19T11:52:57.816Z,13.43
2022-11-19T11:55:25.064Z,8.25
2022-11-19T11:57:56.217Z,11.68
2022-11-19T12:00:42.945Z,11.88
2022-11-19T12:03:18.975Z,12.10
2022-11-19T12:06:07.615Z,15.73
2022-11-19T12:09:20.180Z,12.05
2022-11-19T12:12:00.691Z,18.85
2022-11-19T12:14:31.597Z,16.85
2022-11-19T12:17:34.328Z,16.85
2022-11-19T12:20:44.094Z,19.50
2022-11-19T12:23:52.176Z,15.70
2022-11-19T12:26:55.389Z,17.92
2022-11-19T12:29:32.447Z,14.43
2022-11-19T12:32:27.462Z,12.48
2022-11-19T12:35:04.887Z,16.98
2022-11-19T12:37:35.085Z,13.07
2022-11-19T12:40:14.077Z,13.85
2022-11-19T12:43:03.259Z,12.30
2022-11-19T12:45:46.074Z,17.50
2022-11-19T12:48:33.683Z,13.85
2022-11-19T12:51:24.815Z,15.80
2022-11-19T12:54:30.270Z,13.07
2022-11-19T12:57:12.275Z,13.93
2022-11-19T13:00:13.692Z,13.05
2022-11-19T13:02:57.191Z,15.18
2022-11-19T13:05:42.975Z,13.13
2022-11-19T13:08:31.296Z,14.68
2022-11-19T13:11:25.618Z,14.40
2022-11-19T13:14:02.226Z,14.50
2022-11-19T13:16:32.898Z,26.25
2022-11-19T13:19:28.018Z,17.05
2022-11-19T13:22:10.916Z,17.07
2022-11-19T13:25:22.001Z,16.08
2022-11-19T13:30:19.043Z,18.67
2022-11-19T13:33:12.158Z,15.83
2022-11-19T13:35:51.563Z,18.67
2022-11-19T13:38:45.003Z,14.57
2022-11-19T13:41:28.707Z,19.00
2022-11-19T13:44:15.795Z,15.07
2022-11-19T13:46:56.018Z,15.17
2022-11-19T13:49:33.376Z,21.05
2022-11-19T13:52:10.777Z,19.60
2022-11-19T13:54:41.154Z,14.70
2022-11-19T13:57:24.071Z,13.50
2022-11-19T14:00:08.263Z,19.23
2022-11-19T14:03:02.605Z,14.98
2022-11-19T14:05:50.844Z,17.93
2022-11-19T14:08:48.574Z,16.20
2022-11-19T14:11:43.975Z,18.57
2022-11-19T14:15:19.212Z,21.13
2022-11-19T14:18:22.748Z,17.37
2022-11-19T14:21:08.752Z,19.60
2022-11-19T14:24:08.189Z,18.40
2022-11-19T14:26:42.355Z,24.57
2022-11-19T14:29:27.635Z,20.43
2022-11-19T14:32:00.739Z,17.80
2022-11-19T14:34:34.966Z,18.67
2022-11-19T14:37:23.192Z,17.60
2022-11-19T14:40:28.329Z,16.93
2022-11-19T14:43:20.099Z,15.50
2022-11-19T14:46:05.513Z,18.70
2022-11-19T14:49:01.859Z,13.97
2022-11-19T14:51:36.324Z,19.93
2022-11-19T14:54:32.103Z,19.63
2022-11-19T14:57:17.315Z,46.67
2022-11-19T14:59:55.505Z,46.30
2022-11-19T15:02:40.467Z,26.83
2022-11-19T15:05:30.893Z,25.83
2022-11-19T15:08:16.846Z,25.02
2022-11-19T15:11:07.136Z,22.60
2022-11-19T15:13:37.307Z,20.85
2022-11-19T15:16:27.282Z,22.42
2022-11-19T15:19:12.965Z,23.70
2022-11-19T15:21:51.950Z,19.30
2022-11-19T15:24:45.590Z,25.00
2022-11-19T15:27:33.833Z,28.10
2022-11-19T15:30:22.528Z,21.87
2022-11-19T15:33:39.955Z,19.83
2022-11-19T15:36:45.264Z,21.93
2022-11-19T15:39:42.869Z,20.83
2022-11-19T15:42:21.302Z,25.30
2022-11-19T15:45:00.742Z,23.67
2022-11-19T15:47:47.238Z,19.40
2022-11-19T15:50:22.450Z,30.80
2022-11-19T15:53:23.886Z,22.53
2022-11-19T15:56:00.966Z,95.27
2022-11-19T15:58:46.261Z,47.33
2022-11-19T16:01:22.481Z,28.17
2022-11-19T16:03:53.759Z,31.60
2022-11-19T16:06:26.396Z,27.47
2022-11-19T16:08:57.916Z,28.13
2022-11-19T16:11:49.227Z,23.70
2022-11-19T16:14:44.476Z,25.13
2022-11-19T16:17:39.802Z,23.33
2022-11-19T16:20:17.134Z,25.03
2022-11-19T16:22:55.229Z,26.37
2022-11-19T16:25:28.062Z,27.00
2022-11-19T16:27:59.033Z,22.23
2022-11-19T16:30:30.072Z,27.07
2022-11-19T16:32:59.746Z,25.50
2022-11-19T16:35:32.936Z,24.30
2022-11-19T16:38:01.539Z,24.60
2022-11-19T16:40:49.830Z,24.57
2022-11-19T16:43:18.490Z,20.53
2022-11-19T16:45:47.178Z,30.77
2022-11-19T16:48:43.712Z,23.03
2022-11-19T16:51:52.775Z,21.97
2022-11-19T16:54:49.870Z,25.43
2022-11-19T16:57:25.656Z,21.20
2022-11-19T17:00:13.980Z,22.60
2022-11-19T17:02:41.550Z,24.93
2022-11-19T17:05:24.719Z,24.87
2022-11-19T17:08:13.602Z,28.37
2022-11-19T17:10:40.815Z,25.17
2022-11-19T17:13:32.472Z,22.97
2022-11-19T17:16:18.389Z,29.08
2022-11-19T17:18:45.764Z,32.73
2022-11-19T17:21:27.774Z,26.57
2022-11-19T17:23:55.550Z,33.97
2022-11-19T17:26:27.454Z,31.70
2022-11-19T17:29:11.789Z,29.60
2022-11-19T17:31:48.132Z,25.40
2022-11-19T17:34:33.039Z,27.30
2022-11-19T17:37:00.475Z,25.90
2022-11-19T17:39:27.823Z,30.50
2022-11-19T17:42:14.728Z,33.73
2022-11-19T17:44:42.373Z,31.70
2022-11-19T17:47:23.535Z,32.00
2022-11-19T17:49:52.982Z,29.77
2022-11-19T17:52:29.633Z,32.40
2022-11-19T17:55:14.829Z,30.13
2022-11-19T17:57:42.901Z,27.13
2022-11-19T18:00:11.229Z,35.03
2022-11-19T18:02:38.655Z,39.63
2022-11-19T18:05:19.833Z,35.17
2022-11-19T18:07:47.158Z,36.40
2022-11-19T18:10:14.516Z,30.80
2022-11-19T18:12:41.869Z,36.70
2022-11-19T18:15:17.311Z,38.47
2022-11-19T18:17:45.041Z,36.30
2022-11-19T18:20:13.213Z,31.10
2022-11-19T18:22:41.106Z,35.40
2022-11-19T18:25:17.463Z,46.73
2022-11-19T18:27:45.571Z,36.17
2022-11-19T18:30:14.260Z,39.57
2022-11-19T18:32:41.958Z,55.73
2022-11-19T18:35:20.111Z,44.27
2022-11-19T18:37:47.380Z,48.37
2022-11-19T18:40:15.924Z,45.13
2022-11-19T18:43:03.637Z,40.00
2022-11-19T18:45:31.548Z,39.23
2022-11-19T18:47:58.803Z,44.00
2022-11-19T18:50:29.867Z,43.93
2022-11-19T18:52:57.871Z,44.33
2022-11-19T18:55:25.147Z,39.77
2022-11-19T18:57:52.495Z,45.17
2022-11-19T19:00:20.292Z,37.57
2022-11-19T19:02:47.496Z,41.47
2022-11-19T19:05:14.949Z,40.57
2022-11-19T19:07:42.213Z,41.90
2022-11-19T19:10:10.121Z,37.80
2022-11-19T19:12:37.316Z,54.73
2022-11-19T19:15:05.123Z,47.20
2022-11-19T19:17:32.657Z,58.97
2022-11-19T19:19:59.966Z,55.03
2022-11-19T19:22:28.645Z,57.90
2022-11-19T19:24:58.308Z,49.40
2022-11-19T19:27:26.163Z,45.22
2022-11-19T19:29:53.393Z,46.80
2022-11-19T19:32:20.832Z,47.27
2022-11-19T19:34:48.173Z,44.93
2022-11-19T19:37:15.736Z,46.83
2022-11-19T19:39:43.092Z,46.50
2022-11-19T19:42:10.454Z,47.23
2022-11-19T19:44:37.705Z,54.83
2022-11-19T19:47:05.614Z,51.07
2022-11-19T19:49:37.485Z,50.27
2022-11-19T19:52:06.370Z,54.53
2022-11-19T19:54:33.599Z,49.47
2022-11-19T19:57:00.764Z,52.90
2022-11-19T19:59:28.063Z,43.67
2022-11-19T20:01:55.368Z,50.53
2022-11-19T20:04:22.744Z,54.67
2022-11-19T20:06:51.798Z,50.67
2022-11-19T20:09:19.175Z,48.13
2022-11-19T20:11:46.533Z,56.60
2022-11-19T20:14:14.006Z,51.80
2022-11-19T20:16:42.024Z,51.43
2022-11-19T20:19:14.802Z,41.33
2022-11-19T20:21:42.613Z,45.27
2022-11-19T20:24:13.497Z,52.53
2022-11-19T20:26:42.321Z,44.13
2022-11-19T20:29:13.486Z,56.83
2022-11-19T20:31:45.372Z,55.47
2022-11-19T20:34:13.045Z,38.07
2022-11-19T20:36:40.755Z,35.60
2022-11-19T20:39:08.382Z,44.63
2022-11-19T20:41:54.638Z,40.00
2022-11-19T20:44:22.779Z,32.97
2022-11-19T20:46:55.357Z,34.63
2022-11-19T20:49:32.412Z,38.77
2022-11-19T20:51:59.946Z,39.87
2022-11-19T20:54:28.316Z,40.70
2022-11-19T20:56:57.000Z,42.03
2022-11-19T20:59:26.272Z,39.10
2022-11-19T21:01:55.639Z,43.23
2022-11-19T21:04:25.419Z,41.03
2022-11-19T21:06:54.112Z,43.97
2022-11-19T21:09:22.031Z,43.43
2022-11-19T21:11:49.441Z,42.47
2022-11-19T21:14:16.729Z,46.17
2022-11-19T21:16:44.213Z,42.50
2022-11-19T21:19:12.208Z,38.40
2022-11-19T21:21:39.516Z,34.60
2022-11-19T21:24:07.653Z,47.40
2022-11-19T21:26:35.013Z,41.73
2022-11-19T21:29:02.337Z,48.20
2022-11-19T21:31:39.042Z,46.23
2022-11-19T21:34:12.663Z,43.00
2022-11-19T21:36:42.005Z,46.30
2022-11-19T21:39:10.550Z,42.37
2022-11-19T21:41:38.221Z,48.87
2022-11-19T21:44:06.479Z,50.33
2022-11-19T21:46:34.927Z,44.00
2022-11-19T21:49:02.877Z,44.53
2022-11-19T21:51:30.296Z,42.43
2022-11-19T21:53:58.952Z,37.77
2022-11-19T21:56:27.494Z,39.23
2022-11-19T21:58:54.863Z,35.50
2022-11-19T22:01:22.410Z,44.23
2022-11-19T22:03:49.690Z,37.83
2022-11-19T22:06:17.295Z,32.27
2022-11-19T22:08:44.516Z,37.37
2022-11-19T22:11:42.015Z,34.63
2022-11-19T22:14:09.811Z,32.50
2022-11-19T22:16:40.275Z,37.60
2022-11-19T22:19:07.718Z,29.05
2022-11-19T22:21:35.151Z,33.67
2022-11-19T22:24:03.262Z,29.13
2022-11-19T22:26:30.773Z,31.70
2022-11-19T22:28:58.133Z,37.47
2022-11-19T22:31:25.847Z,29.47
2022-11-19T22:33:53.904Z,32.20
2022-11-19T22:36:22.917Z,36.33
2022-11-19T22:38:51.388Z,33.63
2022-11-19T22:41:21.650Z,35.57
2022-11-19T22:43:49.380Z,35.83
2022-11-19T22:46:17.973Z,35.87
2022-11-19T22:48:45.377Z,30.53
2022-11-19T22:51:20.883Z,39.00
2022-11-19T22:53:49.910Z,36.00
2022-11-19T22:56:24.553Z,34.93
2022-11-19T22:58:52.875Z,35.93
2022-11-19T23:01:33.555Z,33.40
2022-11-19T23:04:08.412Z,32.72
2022-11-19T23:06:37.213Z,33.17
2022-11-19T23:09:06.820Z,33.07
2022-11-19T23:11:52.766Z,34.47
2022-11-19T23:14:20.585Z,33.77
2022-11-19T23:16:47.821Z,32.80
2022-11-19T23:19:19.076Z,34.13
2022-11-19T23:21:46.705Z,31.03
2022-11-19T23:24:14.381Z,35.27
2022-11-19T23:26:41.730Z,32.63
2022-11-19T23:29:09.268Z,34.47
2022-11-19T23:31:39.621Z,36.13
2022-11-19T23:34:07.776Z,29.48
2022-11-19T23:36:38.898Z,41.50
2022-11-19T23:39:10.318Z,32.87
2022-11-19T23:41:37.645Z,35.50
2022-11-19T23:44:05.000Z,30.53
2022-11-19T23:46:34.660Z,31.40
2022-11-19T23:49:03.313Z,33.63
2022-11-19T23:51:34.184Z,30.27
2022-11-19T23:54:02.445Z,31.80
2022-11-19T23:56:32.231Z,31.87
2022-11-19T23:59:02.255Z,30.67
